createdAt,value
2022-09-01T00:01:20.588Z,20.58
2022-09-01T00:03:49.672Z,20.54
2022-09-01T00:06:22.566Z,20.57
2022-09-01T00:08:51.143Z,20.53
2022-09-01T00:11:20.806Z,20.14
2022-09-01T00:13:50.449Z,20.14
2022-09-01T00:16:21.357Z,20.37
2022-09-01T00:18:52.686Z,20.40
2022-09-01T00:21:26.329Z,20.39
2022-09-01T00:23:55.399Z,19.82
2022-09-01T00:26:24.498Z,20.44
2022-09-01T00:28:53.124Z,20.48
2022-09-01T00:31:23.807Z,20.47
2022-09-01T00:33:52.784Z,20.37
2022-09-01T00:36:22.044Z,20.40
2022-09-01T00:38:51.896Z,19.84
2022-09-01T00:41:23.864Z,20.43
2022-09-01T00:43:55.914Z,20.44
2022-09-01T00:46:29.290Z,20.43
2022-09-01T00:49:03.415Z,20.40
2022-09-01T00:51:34.695Z,20.21
2022-09-01T00:54:03.678Z,20.43
2022-09-01T00:56:35.607Z,20.40
2022-09-01T00:59:04.108Z,19.85
2022-09-01T01:01:35.149Z,20.43
2022-09-01T01:04:04.202Z,20.40
2022-09-01T01:06:33.336Z,20.27
2022-09-01T01:09:02.576Z,20.35
2022-09-01T01:11:33.512Z,20.27
2022-09-01T01:14:11.058Z,20.16
2022-09-01T01:16:45.151Z,19.81
2022-09-01T01:19:38.857Z,20.25
2022-09-01T01:22:32.831Z,20.21
2022-09-01T01:25:02.576Z,20.23
2022-09-01T01:27:38.061Z,20.13
2022-09-01T01:30:13.775Z,20.02
2022-09-01T01:32:43.781Z,20.17
2022-09-01T01:35:14.955Z,20.09
2022-09-01T01:37:49.267Z,20.08
2022-09-01T01:40:23.140Z,20.08
2022-09-01T01:42:54.886Z,20.06
2022-09-01T01:45:26.332Z,19.98
2022-09-01T01:47:57.248Z,19.93
2022-09-01T01:50:34.575Z,19.96
2022-09-01T01:53:11.183Z,19.96
2022-09-01T01:55:43.834Z,19.92
2022-09-01T01:58:15.037Z,19.91
2022-09-01T02:00:46.705Z,19.78
2022-09-01T02:03:18.983Z,19.27
2022-09-01T02:05:49.646Z,19.78
2022-09-01T02:08:26.027Z,19.68
2022-09-01T02:11:00.188Z,19.39
2022-09-01T02:13:31.115Z,19.74
2022-09-01T02:16:03.281Z,19.80
2022-09-01T02:18:36.069Z,19.69
2022-09-01T02:21:12.762Z,19.61
2022-09-01T02:23:43.603Z,19.72
2022-09-01T02:26:17.439Z,19.70
2022-09-01T02:28:55.608Z,19.65
2022-09-01T02:31:28.933Z,19.66
2022-09-01T02:34:01.192Z,19.67
2022-09-01T02:36:32.901Z,19.61
2022-09-01T02:39:01.854Z,19.66
2022-09-01T02:41:34.601Z,19.69
2022-09-01T02:44:11.627Z,19.68
2022-09-01T02:46:43.024Z,19.65
2022-09-01T02:49:17.542Z,19.54
2022-09-01T02:51:48.765Z,19.60
2022-09-01T02:54:19.180Z,19.62
2022-09-01T02:56:49.811Z,19.60
2022-09-01T02:59:21.764Z,19.61
2022-09-01T03:01:52.291Z,19.59
2022-09-01T03:04:22.448Z,19.56
2022-09-01T03:06:55.009Z,19.54
2022-09-01T03:09:24.249Z,19.55
2022-09-01T03:11:55.586Z,19.60
2022-09-01T03:14:26.476Z,19.56
2022-09-01T03:16:55.716Z,19.33
2022-09-01T03:19:24.354Z,19.52
2022-09-01T03:21:52.756Z,19.54
2022-09-01T03:24:24.699Z,19.45
2022-09-01T03:26:55.906Z,19.50
2022-09-01T03:29:24.651Z,19.47
2022-09-01T03:31:53.111Z,19.48
2022-09-01T03:34:23.696Z,19.40
2022-09-01T03:36:54.951Z,19.43
2022-09-01T03:39:30.712Z,19.42
2022-09-01T03:42:01.738Z,19.15
2022-09-01T03:44:30.189Z,19.33
2022-09-01T03:46:58.547Z,19.34
2022-09-01T03:49:28.659Z,19.31
2022-09-01T03:51:58.717Z,19.30
2022-09-01T03:54:30.633Z,19.29
2022-09-01T03:57:00.654Z,19.22
2022-09-01T03:59:30.858Z,19.25
2022-09-01T04:02:00.385Z,19.17
2022-09-01T04:04:31.430Z,19.24
2022-09-01T04:07:01.159Z,19.12
2022-09-01T04:09:34.958Z,19.15
2022-09-01T04:12:09.027Z,19.14
2022-09-01T04:14:38.984Z,18.98
2022-09-01T04:17:29.922Z,18.99
2022-09-01T04:19:59.077Z,18.98
2022-09-01T04:22:32.098Z,18.82
2022-09-01T04:25:00.821Z,18.89
2022-09-01T04:27:30.713Z,18.71
2022-09-01T04:30:01.489Z,18.96
2022-09-01T04:32:32.517Z,18.96
2022-09-01T04:35:04.064Z,18.84
2022-09-01T04:37:32.654Z,18.79
2022-09-01T04:40:06.415Z,18.78
2022-09-01T04:42:36.531Z,18.84
2022-09-01T04:45:11.312Z,18.77
2022-09-01T04:47:47.812Z,18.65
2022-09-01T04:50:18.833Z,18.69
2022-09-01T04:53:11.950Z,18.65
2022-09-01T04:55:44.540Z,18.55
2022-09-01T04:58:18.563Z,18.53
2022-09-01T05:00:49.629Z,18.56
2022-09-01T05:03:24.396Z,18.38
2022-09-01T05:06:18.768Z,18.36
2022-09-01T05:09:00.224Z,18.35
2022-09-01T05:11:50.196Z,18.39
2022-09-01T05:14:26.306Z,18.28
2022-09-01T05:17:00.414Z,18.27
2022-09-01T05:19:30.810Z,18.21
2022-09-01T05:22:01.398Z,18.22
2022-09-01T05:24:32.421Z,18.27
2022-09-01T05:27:05.683Z,18.40
2022-09-01T05:29:39.577Z,18.45
2022-09-01T05:32:10.229Z,18.48
2022-09-01T05:34:40.423Z,18.58
2022-09-01T05:37:12.016Z,18.60
2022-09-01T05:39:40.881Z,18.64
2022-09-01T05:42:09.411Z,18.41
2022-09-01T05:44:44.210Z,18.13
2022-09-01T05:47:21.127Z,18.27
2022-09-01T05:49:53.596Z,18.34
2022-09-01T05:52:25.591Z,18.42
2022-09-01T05:54:56.780Z,18.49
2022-09-01T05:57:35.106Z,18.44
2022-09-01T06:00:12.321Z,18.13
2022-09-01T06:02:45.103Z,17.70
2022-09-01T06:05:19.401Z,18.44
2022-09-01T06:07:49.355Z,18.49
2022-09-01T06:10:18.012Z,18.56
2022-09-01T06:12:48.815Z,18.47
2022-09-01T06:15:21.024Z,18.48
2022-09-01T06:17:52.854Z,18.55
2022-09-01T06:20:22.977Z,18.47
2022-09-01T06:22:52.590Z,18.52
2022-09-01T06:25:22.197Z,18.69
2022-09-01T06:27:52.429Z,18.81
2022-09-01T06:30:26.385Z,18.75
2022-09-01T06:33:09.349Z,18.92
2022-09-01T06:35:40.502Z,19.03
2022-09-01T06:38:10.905Z,19.28
2022-09-01T06:40:45.336Z,19.49
2022-09-01T06:43:17.455Z,19.57
2022-09-01T06:45:54.397Z,19.90
2022-09-01T06:48:24.939Z,20.16
2022-09-01T06:51:20.860Z,20.19
2022-09-01T06:53:57.139Z,20.27
2022-09-01T06:56:32.305Z,20.27
2022-09-01T06:59:04.127Z,20.58
2022-09-01T07:01:34.131Z,20.84
2022-09-01T07:04:03.998Z,20.88
2022-09-01T07:06:59.366Z,20.74
2022-09-01T07:09:47.913Z,20.88
2022-09-01T07:12:31.990Z,20.84
2022-09-01T07:17:53.441Z,20.12
2022-09-01T07:20:26.140Z,20.46
2022-09-01T07:23:06.527Z,20.76
2022-09-01T07:26:01.277Z,20.76
2022-09-01T07:28:37.110Z,20.17
2022-09-01T07:39:49.871Z,20.59
2022-09-01T07:45:58.318Z,20.91
2022-09-01T07:49:01.911Z,20.42
2022-09-01T07:51:38.885Z,20.58
2022-09-01T07:54:08.932Z,21.20
2022-09-01T07:56:40.255Z,21.14
2022-09-01T07:59:15.191Z,20.94
2022-09-01T08:02:18.157Z,21.12
2022-09-01T08:04:48.230Z,21.59
2022-09-01T08:07:18.833Z,21.31
2022-09-01T08:09:47.387Z,22.03
2022-09-01T08:12:17.253Z,22.22
2022-09-01T08:17:51.472Z,21.89
2022-09-01T08:20:21.195Z,22.05
2022-09-01T08:22:55.249Z,22.34
2022-09-01T08:25:32.182Z,22.23
2022-09-01T08:28:00.953Z,22.29
2022-09-01T08:30:32.502Z,22.12
2022-09-01T08:33:10.115Z,22.60
2022-09-01T08:35:40.234Z,22.53
2022-09-01T08:38:11.041Z,22.81
2022-09-01T08:40:40.852Z,22.96
2022-09-01T08:43:23.162Z,23.00
2022-09-01T08:45:55.011Z,23.15
2022-09-01T08:49:23.212Z,23.33
2022-09-01T08:51:27.482Z,23.23
2022-09-01T08:54:12.734Z,22.99
2022-09-01T08:56:43.853Z,23.19
2022-09-01T08:59:15.047Z,23.63
2022-09-01T09:02:21.497Z,23.62
2022-09-01T09:05:15.566Z,23.33
2022-09-01T09:08:17.551Z,22.93
2022-09-01T09:10:58.829Z,22.72
2022-09-01T09:13:42.540Z,22.83
2022-09-01T09:16:17.690Z,22.74
2022-09-01T09:18:55.686Z,23.01
2022-09-01T09:21:30.529Z,23.11
2022-09-01T09:24:12.265Z,22.89
2022-09-01T09:26:42.125Z,22.91
2022-09-01T09:29:11.521Z,23.15
2022-09-01T09:31:45.978Z,22.91
2022-09-01T09:34:33.275Z,23.11
2022-09-01T09:37:23.656Z,23.14
2022-09-01T09:40:10.679Z,23.17
2022-09-01T09:42:42.917Z,23.33
2022-09-01T09:45:25.865Z,23.51
2022-09-01T09:47:55.824Z,23.88
2022-09-01T09:50:29.533Z,23.50
2022-09-01T09:53:20.205Z,23.47
2022-09-01T09:55:56.502Z,23.61
2022-09-01T09:58:31.423Z,23.57
2022-09-01T10:01:08.477Z,23.58
2022-09-01T10:03:42.397Z,23.56
2022-09-01T10:06:31.155Z,23.53
2022-09-01T10:09:01.594Z,23.60
2022-09-01T10:11:36.859Z,23.88
2022-09-01T10:14:35.456Z,23.80
2022-09-01T10:17:10.711Z,23.78
2022-09-01T10:19:48.766Z,23.92
2022-09-01T10:22:19.330Z,24.07
2022-09-01T10:24:50.307Z,24.10
2022-09-01T10:27:23.773Z,24.06
2022-09-01T10:30:18.955Z,24.14
2022-09-01T10:32:55.786Z,24.28
2022-09-01T10:35:30.011Z,24.15
2022-09-01T10:38:00.251Z,24.17
2022-09-01T10:40:43.458Z,24.48
2022-09-01T10:43:38.081Z,24.83
2022-09-01T10:46:50.810Z,25.04
2022-09-01T10:50:07.846Z,24.78
2022-09-01T10:53:05.867Z,25.38
2022-09-01T10:55:48.725Z,24.78
2022-09-01T11:02:42.064Z,24.85
2022-09-01T11:05:17.807Z,24.99
2022-09-01T11:08:14.675Z,24.97
2022-09-01T11:10:50.785Z,24.81
2022-09-01T11:13:36.444Z,24.91
2022-09-01T11:16:49.659Z,24.80
2022-09-01T11:19:37.610Z,24.74
2022-09-01T11:22:33.688Z,24.59
2022-09-01T11:25:40.669Z,25.03
2022-09-01T11:28:42.035Z,25.17
2022-09-01T11:31:33.975Z,25.58
2022-09-01T11:34:19.362Z,25.35
2022-09-01T11:37:01.342Z,25.80
2022-09-01T11:39:35.383Z,25.77
2022-09-01T11:42:10.226Z,25.63
2022-09-01T11:44:45.006Z,25.71
2022-09-01T11:47:17.235Z,25.78
2022-09-01T11:49:53.501Z,25.67
2022-09-01T11:52:27.535Z,25.59
2022-09-01T11:54:55.832Z,25.49
2022-09-01T11:57:31.753Z,25.57
2022-09-01T12:00:02.162Z,25.68
2022-09-01T12:02:46.777Z,25.82
2022-09-01T12:05:33.644Z,25.87
2022-09-01T12:08:05.781Z,26.04
2022-09-01T12:10:37.667Z,26.36
2022-09-01T12:13:09.282Z,26.58
2022-09-01T12:16:00.599Z,26.82
2022-09-01T12:18:33.965Z,26.85
2022-09-01T12:21:05.617Z,26.65
2022-09-01T12:23:40.255Z,25.90
2022-09-01T12:26:13.766Z,26.42
2022-09-01T12:28:43.360Z,26.09
2022-09-01T12:31:17.977Z,25.80
2022-09-01T12:33:48.152Z,25.94
2022-09-01T12:36:28.197Z,26.24
2022-09-01T12:39:01.957Z,26.11
2022-09-01T12:41:38.971Z,26.32
2022-09-01T12:44:31.703Z,26.27
2022-09-01T12:47:03.613Z,26.36
2022-09-01T12:49:50.185Z,26.27
2022-09-01T12:52:26.703Z,26.05
2022-09-01T12:58:07.276Z,26.77
2022-09-01T13:00:39.647Z,27.09
2022-09-01T13:03:14.258Z,26.64
2022-09-01T13:05:44.579Z,25.51
2022-09-01T13:08:15.603Z,25.69
2022-09-01T13:10:48.505Z,25.60
2022-09-01T13:13:18.310Z,25.73
2022-09-01T13:15:50.342Z,25.37
2022-09-01T13:18:20.396Z,24.71
2022-09-01T13:20:49.569Z,25.09
2022-09-01T13:23:18.868Z,25.20
2022-09-01T13:25:49.036Z,24.62
2022-09-01T13:28:18.909Z,24.58
2022-09-01T13:36:45.402Z,25.17
2022-09-01T13:39:15.677Z,25.15
2022-09-01T13:41:47.312Z,25.08
2022-09-01T13:44:17.287Z,25.05
2022-09-01T13:47:28.685Z,24.91
2022-09-01T13:50:04.587Z,24.96
2022-09-01T13:52:23.688Z,24.89
2022-09-01T13:54:52.156Z,25.30
2022-09-01T13:57:21.849Z,25.07
2022-09-01T13:59:50.242Z,25.22
2022-09-01T14:02:18.797Z,25.64
2022-09-01T14:04:47.466Z,25.47
2022-09-01T14:07:16.288Z,25.19
2022-09-01T14:09:44.604Z,24.98
2022-09-01T14:12:13.702Z,24.86
2022-09-01T14:17:31.888Z,25.23
2022-09-01T14:20:00.167Z,24.97
2022-09-01T14:22:28.979Z,25.07
2022-09-01T14:24:57.347Z,25.29
2022-09-01T14:27:25.669Z,25.22
2022-09-01T14:29:55.357Z,25.22
2022-09-01T14:32:27.136Z,25.03
2022-09-01T14:34:55.901Z,25.56
2022-09-01T14:37:25.156Z,25.80
2022-09-01T14:39:55.507Z,25.61
2022-09-01T14:42:25.743Z,26.12
2022-09-01T14:44:55.609Z,26.23
2022-09-01T14:47:26.067Z,25.75
2022-09-01T14:49:54.939Z,25.03
2022-09-01T14:52:23.402Z,25.25
2022-09-01T14:54:51.898Z,25.41
2022-09-01T14:57:29.478Z,25.26
2022-09-01T15:00:01.902Z,25.39
2022-09-01T15:02:32.948Z,25.70
2022-09-01T15:05:01.367Z,26.00
2022-09-01T15:07:29.737Z,26.28
2022-09-01T15:09:58.925Z,26.30
2022-09-01T15:12:31.821Z,25.04
2022-09-01T15:15:02.168Z,25.34
2022-09-01T15:17:30.589Z,25.10
2022-09-01T15:20:19.381Z,25.25
2022-09-01T15:22:49.014Z,25.20
2022-09-01T15:25:18.727Z,24.66
2022-09-01T15:27:47.438Z,25.52
2022-09-01T15:30:17.908Z,25.69
2022-09-01T15:32:48.597Z,25.41
2022-09-01T15:35:18.483Z,25.50
2022-09-01T15:37:48.269Z,25.39
2022-09-01T15:40:18.334Z,25.06
2022-09-01T15:42:47.195Z,25.28
2022-09-01T15:45:21.707Z,24.90
2022-09-01T15:47:50.498Z,24.98
2022-09-01T15:50:22.709Z,25.35
2022-09-01T15:52:59.532Z,25.19
2022-09-01T15:55:31.336Z,24.66
2022-09-01T15:58:00.463Z,24.97
2022-09-01T16:00:30.934Z,25.04
2022-09-01T16:03:01.818Z,25.02
2022-09-01T16:05:31.457Z,25.05
2022-09-01T16:08:01.497Z,25.10
2022-09-01T16:10:33.675Z,24.96
2022-09-01T16:13:05.285Z,25.06
2022-09-01T16:15:35.600Z,25.05
2022-09-01T16:18:30.803Z,24.98
2022-09-01T16:21:05.739Z,25.26
2022-09-01T16:23:43.660Z,25.38
2022-09-01T16:26:12.814Z,25.22
2022-09-01T16:28:46.648Z,25.20
2022-09-01T16:31:21.178Z,25.16
2022-09-01T16:33:54.036Z,25.18
2022-09-01T16:36:35.378Z,25.14
2022-09-01T16:39:13.127Z,24.93
2022-09-01T16:41:56.239Z,24.93
2022-09-01T16:44:40.023Z,24.74
2022-09-01T16:47:27.703Z,24.98
2022-09-01T16:50:12.526Z,24.97
2022-09-01T16:52:57.547Z,24.91
2022-09-01T16:55:37.040Z,24.83
2022-09-01T16:58:15.050Z,24.84
2022-09-01T17:01:04.477Z,24.93
2022-09-01T17:03:43.184Z,25.11
2022-09-01T17:06:26.984Z,24.85
2022-09-01T17:09:08.245Z,24.90
2022-09-01T17:11:49.267Z,24.95
2022-09-01T17:14:27.791Z,24.98
2022-09-01T17:17:07.068Z,24.96
2022-09-01T17:19:41.704Z,24.90
2022-09-01T17:22:14.095Z,24.97
2022-09-01T17:24:46.157Z,24.90
2022-09-01T17:27:23.152Z,24.57
2022-09-01T17:29:53.841Z,24.71
2022-09-01T17:32:56.735Z,24.77
2022-09-01T17:35:36.497Z,24.74
2022-09-01T17:38:19.641Z,24.91
2022-09-01T17:41:11.298Z,24.99
2022-09-01T17:43:55.470Z,25.09
2022-09-01T17:46:34.219Z,25.22
2022-09-01T17:49:11.844Z,25.18
2022-09-01T17:51:50.126Z,24.88
2022-09-01T17:54:28.742Z,25.00
2022-09-01T17:57:07.372Z,25.01
2022-09-01T17:59:45.752Z,25.28
2022-09-01T18:02:48.600Z,25.40
2022-09-01T18:05:19.759Z,25.43
2022-09-01T18:08:05.781Z,25.61
2022-09-01T18:10:40.141Z,25.66
2022-09-01T18:13:30.737Z,25.70
2022-09-01T18:16:18.071Z,25.70
2022-09-01T18:18:51.092Z,25.74
2022-09-01T18:21:22.452Z,25.70
2022-09-01T18:24:05.125Z,25.71
2022-09-01T18:26:38.188Z,25.67
2022-09-01T18:29:07.484Z,25.50
2022-09-01T18:32:01.115Z,25.60
2022-09-01T18:34:56.258Z,25.58
2022-09-01T18:37:34.461Z,25.60
2022-09-01T18:40:19.649Z,25.44
2022-09-01T18:42:56.903Z,25.48
2022-09-01T18:45:35.391Z,25.46
2022-09-01T18:48:14.840Z,25.43
2022-09-01T18:50:54.841Z,25.41
2022-09-01T18:53:35.336Z,25.38
2022-09-01T18:56:15.266Z,25.33
2022-09-01T18:58:58.259Z,25.32
2022-09-01T19:01:34.536Z,24.90
2022-09-01T19:04:14.880Z,24.64
2022-09-01T19:06:59.865Z,25.19
2022-09-01T19:09:33.527Z,25.18
2022-09-01T19:12:18.761Z,25.16
2022-09-01T19:14:56.657Z,25.09
2022-09-01T19:18:02.123Z,25.04
2022-09-01T19:20:42.235Z,24.99
2022-09-01T19:23:17.135Z,24.93
2022-09-01T19:25:45.943Z,24.96
2022-09-01T19:28:25.246Z,24.33
2022-09-01T19:31:12.399Z,24.80
2022-09-01T19:33:45.074Z,24.78
2022-09-01T19:36:21.674Z,24.67
2022-09-01T19:38:50.180Z,24.67
2022-09-01T19:41:26.374Z,24.55
2022-09-01T19:44:08.214Z,24.61
2022-09-01T19:46:42.639Z,24.57
2022-09-01T19:49:23.759Z,24.58
2022-09-01T19:51:59.003Z,24.46
2022-09-01T19:54:41.865Z,24.52
2022-09-01T19:57:17.921Z,24.48
2022-09-01T19:59:57.600Z,24.45
2022-09-01T20:02:32.383Z,24.45
2022-09-01T20:05:09.375Z,24.33
2022-09-01T20:07:44.410Z,24.37
2022-09-01T20:10:32.007Z,24.18
2022-09-01T20:13:50.378Z,24.32
2022-09-01T20:16:29.644Z,24.29
2022-09-01T20:19:05.364Z,24.24
2022-09-01T20:21:40.050Z,24.18
2022-09-01T20:24:17.755Z,24.20
2022-09-01T20:26:56.004Z,24.15
2022-09-01T20:29:32.457Z,24.11
2022-09-01T20:32:04.506Z,24.12
2022-09-01T20:34:42.138Z,24.04
2022-09-01T20:37:19.508Z,24.04
2022-09-01T20:40:02.573Z,24.03
2022-09-01T20:42:42.080Z,23.97
2022-09-01T20:45:15.862Z,23.93
2022-09-01T20:47:51.892Z,23.89
2022-09-01T20:50:24.484Z,23.92
2022-09-01T20:53:23.479Z,23.87
2022-09-01T20:55:59.684Z,23.80
2022-09-01T20:58:37.340Z,23.73
2022-09-01T21:01:24.208Z,23.67
2022-09-01T21:04:05.855Z,23.76
2022-09-01T21:06:50.266Z,23.80
2022-09-01T21:09:36.312Z,23.64
2022-09-01T21:12:10.318Z,23.76
2022-09-01T21:14:55.662Z,23.73
2022-09-01T21:17:35.310Z,23.63
2022-09-01T21:20:15.470Z,23.43
2022-09-01T21:22:43.943Z,23.58
2022-09-01T21:25:12.334Z,23.43
2022-09-01T21:27:48.784Z,23.42
2022-09-01T21:30:18.235Z,23.32
2022-09-01T21:32:46.687Z,23.25
2022-09-01T21:35:19.421Z,23.14
2022-09-01T21:37:48.208Z,23.09
2022-09-01T21:40:19.024Z,23.06
2022-09-01T21:42:52.063Z,23.00
2022-09-01T21:45:20.888Z,22.96
2022-09-01T21:47:51.421Z,22.90
2022-09-01T21:50:24.460Z,22.78
2022-09-01T21:52:53.105Z,22.65
2022-09-01T21:55:23.230Z,22.59
2022-09-01T21:57:52.249Z,22.66
2022-09-01T22:00:24.456Z,22.45
2022-09-01T22:02:53.075Z,22.22
2022-09-01T22:05:26.251Z,22.00
2022-09-01T22:07:56.005Z,22.08
2022-09-01T22:10:26.817Z,22.11
2022-09-01T22:12:56.677Z,22.09
2022-09-01T22:15:27.373Z,21.99
2022-09-01T22:17:57.915Z,22.11
2022-09-01T22:20:29.202Z,22.15
2022-09-01T22:23:01.778Z,21.97
2022-09-01T22:25:32.166Z,21.99
2022-09-01T22:28:01.521Z,22.02
2022-09-01T22:30:30.023Z,21.87
2022-09-01T22:32:59.760Z,21.90
2022-09-01T22:35:29.992Z,21.89
2022-09-01T22:37:58.496Z,21.77
2022-09-01T22:40:26.938Z,21.88
2022-09-01T22:42:55.401Z,21.86
2022-09-01T22:45:23.729Z,21.71
2022-09-01T22:47:52.168Z,21.64
2022-09-01T22:50:20.639Z,21.71
2022-09-01T22:52:50.340Z,21.68
2022-09-01T22:55:19.660Z,21.68
2022-09-01T22:57:47.930Z,21.71
2022-09-01T23:00:17.123Z,21.69
2022-09-01T23:02:45.754Z,21.62
2022-09-01T23:05:14.365Z,21.64
2022-09-01T23:07:42.729Z,21.66
2022-09-01T23:10:12.715Z,21.64
2022-09-01T23:12:41.037Z,21.66
2022-09-01T23:15:10.908Z,21.20
2022-09-01T23:17:39.807Z,21.65
2022-09-01T23:20:13.022Z,21.63
2022-09-01T23:22:41.904Z,21.66
2022-09-01T23:25:13.520Z,21.57
2022-09-01T23:27:42.520Z,21.58
2022-09-01T23:30:14.659Z,21.39
2022-09-01T23:32:43.106Z,21.55
2022-09-01T23:35:12.354Z,21.55
2022-09-01T23:37:40.823Z,21.44
2022-09-01T23:40:10.582Z,21.46
2022-09-01T23:42:41.470Z,21.50
2022-09-01T23:45:11.363Z,21.44
2022-09-01T23:47:39.755Z,21.41
2022-09-01T23:50:09.648Z,21.27
2022-09-01T23:52:39.403Z,21.13
2022-09-01T23:55:09.431Z,21.19
2022-09-01T23:57:38.325Z,21.07
